createdAt,value
2023-02-25T00:02:03.110Z,18.20
2023-02-25T00:04:32.889Z,17.60
2023-02-25T00:07:20.880Z,18.20
2023-02-25T00:09:53.414Z,17.80
2023-02-25T00:12:21.452Z,16.60
2023-02-25T00:14:49.552Z,15.80
2023-02-25T00:17:18.743Z,16.60
2023-02-25T00:19:47.134Z,16.70
2023-02-25T00:22:15.181Z,16.00
2023-02-25T00:24:43.287Z,16.40
2023-02-25T00:27:11.299Z,17.00
2023-02-25T00:29:40.376Z,16.10
2023-02-25T00:32:08.542Z,17.00
2023-02-25T00:35:28.914Z,17.50
2023-02-25T00:38:03.954Z,17.10
2023-02-25T00:40:40.565Z,16.80
2023-02-25T00:43:08.755Z,17.00
2023-02-25T00:45:39.649Z,17.30
2023-02-25T00:48:08.422Z,16.40
2023-02-25T00:50:39.764Z,17.80
2023-02-25T00:53:09.012Z,17.30
2023-02-25T00:55:37.031Z,16.50
2023-02-25T00:58:05.041Z,16.70
2023-02-25T01:00:46.425Z,16.20
2023-02-25T01:03:19.496Z,17.50
2023-02-25T01:05:50.586Z,18.40
2023-02-25T01:08:20.159Z,17.80
2023-02-25T01:10:48.225Z,18.10
2023-02-25T01:13:20.528Z,16.70
2023-02-25T01:15:48.680Z,18.90
2023-02-25T01:18:20.767Z,18.50
2023-02-25T01:20:51.558Z,18.40
2023-02-25T01:23:20.368Z,16.80
2023-02-25T01:25:50.813Z,18.20
2023-02-25T01:28:19.098Z,18.10
2023-02-25T01:30:47.770Z,17.20
2023-02-25T01:33:16.326Z,18.70
2023-02-25T01:35:45.493Z,17.60
2023-02-25T01:38:13.515Z,17.90
2023-02-25T01:40:41.691Z,19.50
2023-02-25T01:43:16.903Z,19.70
2023-02-25T01:45:45.102Z,19.70
2023-02-25T01:48:18.333Z,19.90
2023-02-25T01:50:55.350Z,20.20
2023-02-25T01:53:30.630Z,19.20
2023-02-25T01:55:58.956Z,20.50
2023-02-25T01:58:27.047Z,19.90
2023-02-25T02:00:56.530Z,19.50
2023-02-25T02:03:37.367Z,21.50
2023-02-25T02:06:12.993Z,20.90
2023-02-25T02:08:42.758Z,19.20
2023-02-25T02:11:11.615Z,19.90
2023-02-25T02:13:44.165Z,21.30
2023-02-25T02:16:37.183Z,21.00
2023-02-25T02:19:14.546Z,21.40
2023-02-25T02:22:00.715Z,20.40
2023-02-25T02:24:40.953Z,20.20
2023-02-25T02:27:14.959Z,21.80
2023-02-25T02:29:58.905Z,21.60
2023-02-25T02:32:55.699Z,20.90
2023-02-25T02:35:27.890Z,20.20
2023-02-25T02:38:26.804Z,21.10
2023-02-25T02:41:04.374Z,20.00
2023-02-25T02:43:41.667Z,20.40
2023-02-25T02:46:12.803Z,20.30
2023-02-25T02:48:49.115Z,20.90
2023-02-25T02:53:54.573Z,20.10
2023-02-25T02:56:25.112Z,20.30
2023-02-25T02:58:59.470Z,20.80
2023-02-25T03:01:32.852Z,20.80
2023-02-25T03:04:06.233Z,21.10
2023-02-25T03:06:40.896Z,20.00
2023-02-25T03:09:18.875Z,20.20
2023-02-25T03:11:47.067Z,22.00
2023-02-25T03:14:15.955Z,21.20
2023-02-25T03:16:59.919Z,20.10
2023-02-25T03:19:45.641Z,20.50
2023-02-25T03:22:15.994Z,20.90
2023-02-25T03:25:06.666Z,20.70
2023-02-25T03:27:39.504Z,20.10
2023-02-25T03:30:31.817Z,20.30
2023-02-25T03:33:16.533Z,21.00
2023-02-25T03:35:46.330Z,20.60
2023-02-25T03:38:18.351Z,20.60
2023-02-25T03:40:47.810Z,20.30
2023-02-25T03:43:28.073Z,20.50
2023-02-25T03:45:58.358Z,21.80
2023-02-25T03:48:27.072Z,20.50
2023-02-25T03:51:03.547Z,20.80
2023-02-25T03:53:48.237Z,20.70
2023-02-25T03:56:20.805Z,21.70
2023-02-25T03:58:49.271Z,22.10
2023-02-25T04:01:28.263Z,21.70
2023-02-25T04:03:56.427Z,22.50
2023-02-25T04:06:25.672Z,22.90
2023-02-25T04:08:54.733Z,21.40
2023-02-25T04:11:23.351Z,22.20
2023-02-25T04:13:51.515Z,22.60
2023-02-25T04:16:21.920Z,22.80
2023-02-25T04:18:55.468Z,23.10
2023-02-25T04:21:32.200Z,22.80
2023-02-25T04:24:00.426Z,22.70
2023-02-25T04:26:28.515Z,20.50
2023-02-25T04:28:57.324Z,22.90
2023-02-25T04:31:25.760Z,21.50
2023-02-25T04:33:53.922Z,22.30
2023-02-25T04:36:29.038Z,22.00
2023-02-25T04:38:57.899Z,21.80
2023-02-25T04:41:29.801Z,20.50
2023-02-25T04:44:04.050Z,20.40
2023-02-25T04:46:35.775Z,20.30
2023-02-25T04:49:04.067Z,21.40
2023-02-25T04:51:35.632Z,20.50
2023-02-25T04:54:04.178Z,19.50
2023-02-25T04:56:32.282Z,18.40
2023-02-25T04:59:00.580Z,19.60
2023-02-25T05:01:28.886Z,20.10
2023-02-25T05:03:57.569Z,20.50
2023-02-25T05:06:26.017Z,17.40
2023-02-25T05:08:58.999Z,17.90
2023-02-25T05:11:28.194Z,16.70
2023-02-25T05:13:57.455Z,17.70
2023-02-25T05:16:27.264Z,16.00
2023-02-25T05:18:55.452Z,15.70
2023-02-25T05:21:26.076Z,15.10
2023-02-25T05:23:54.550Z,15.60
2023-02-25T05:26:24.296Z,15.20
2023-02-25T05:28:54.246Z,16.40
2023-02-25T05:31:24.849Z,16.00
2023-02-25T05:33:53.178Z,15.80
2023-02-25T05:36:21.740Z,15.30
2023-02-25T05:38:55.359Z,14.60
2023-02-25T05:41:23.410Z,14.70
2023-02-25T05:43:51.549Z,14.80
2023-02-25T05:46:19.827Z,14.60
2023-02-25T05:48:49.077Z,14.20
2023-02-25T05:51:18.914Z,13.20
2023-02-25T05:53:48.190Z,14.30
2023-02-25T05:56:19.440Z,14.10
2023-02-25T05:58:48.781Z,14.50
2023-02-25T06:01:22.911Z,13.70
2023-02-25T06:03:52.644Z,13.90
2023-02-25T06:06:24.784Z,13.40
2023-02-25T06:08:53.231Z,14.00
2023-02-25T06:11:29.190Z,13.50
2023-02-25T06:13:58.376Z,14.20
2023-02-25T06:16:30.500Z,12.60
2023-02-25T06:19:02.501Z,15.10
2023-02-25T06:21:34.099Z,13.30
2023-02-25T06:24:05.301Z,14.00
2023-02-25T06:26:35.519Z,12.50
2023-02-25T06:29:04.036Z,14.90
2023-02-25T06:31:34.765Z,17.50
2023-02-25T06:34:03.433Z,18.80
2023-02-25T06:36:32.327Z,11.90
2023-02-25T06:39:00.414Z,11.00
2023-02-25T06:41:28.562Z,8.90
2023-02-25T06:43:56.951Z,7.70
2023-02-25T06:46:26.089Z,7.70
2023-02-25T06:48:54.732Z,5.60
2023-02-25T06:51:23.219Z,5.80
2023-02-25T06:53:53.133Z,5.20
2023-02-25T06:56:22.735Z,4.30
2023-02-25T06:58:53.175Z,3.20
2023-02-25T07:01:21.372Z,3.30
2023-02-25T07:03:49.925Z,3.20
2023-02-25T07:06:18.289Z,4.90
2023-02-25T07:08:46.713Z,2.50
2023-02-25T07:11:18.121Z,1.70
2023-02-25T07:13:49.549Z,1.80
2023-02-25T07:16:17.667Z,2.20
2023-02-25T07:18:51.140Z,1.70
2023-02-25T07:21:20.076Z,1.80
2023-02-25T07:23:48.095Z,1.90
2023-02-25T07:27:13.565Z,1.80
2023-02-25T07:29:41.673Z,1.80
2023-02-25T07:32:09.809Z,1.70
2023-02-25T07:34:39.216Z,1.60
2023-02-25T07:37:07.451Z,1.50
2023-02-25T07:39:35.990Z,2.20
2023-02-25T07:42:04.068Z,14.80
2023-02-25T07:44:34.004Z,6.90
2023-02-25T07:47:02.118Z,5.70
2023-02-25T07:49:30.247Z,6.90
2023-02-25T07:51:58.633Z,9.10
2023-02-25T07:54:26.732Z,15.90
2023-02-25T07:56:54.810Z,12.80
2023-02-25T07:59:23.407Z,9.50
2023-02-25T08:01:55.276Z,7.10
2023-02-25T08:04:24.667Z,4.90
2023-02-25T08:06:52.975Z,4.60
2023-02-25T08:09:21.624Z,5.10
2023-02-25T08:11:49.718Z,5.60
2023-02-25T08:14:17.786Z,6.40
2023-02-25T08:16:45.832Z,6.20
2023-02-25T08:19:13.823Z,6.20
2023-02-25T08:21:43.059Z,4.90
2023-02-25T08:24:13.488Z,3.10
2023-02-25T08:26:42.590Z,2.90
2023-02-25T08:29:10.618Z,4.10
2023-02-25T08:31:39.434Z,2.90
2023-02-25T08:34:07.744Z,3.00
2023-02-25T08:36:37.409Z,2.80
2023-02-25T08:39:05.968Z,2.10
2023-02-25T08:41:35.202Z,2.60
2023-02-25T08:44:03.188Z,1.90
2023-02-25T08:46:31.907Z,2.10
2023-02-25T08:49:01.022Z,1.90
2023-02-25T08:51:34.578Z,1.60
2023-02-25T08:54:05.596Z,1.30
2023-02-25T08:56:35.273Z,1.40
2023-02-25T08:59:04.022Z,7.00
2023-02-25T09:01:45.009Z,2.40
2023-02-25T09:04:16.027Z,2.30
2023-02-25T09:06:44.470Z,3.70
2023-02-25T09:09:13.480Z,5.10
2023-02-25T09:11:41.961Z,2.10
2023-02-25T09:14:10.627Z,2.80
2023-02-25T09:16:41.068Z,1.80
2023-02-25T09:19:10.963Z,1.60
2023-02-25T09:21:43.166Z,1.90
2023-02-25T09:24:11.785Z,2.00
2023-02-25T09:26:39.863Z,1.80
2023-02-25T09:29:08.768Z,1.90
2023-02-25T09:31:37.800Z,2.10
2023-02-25T09:34:08.122Z,1.50
2023-02-25T09:36:36.921Z,1.40
2023-02-25T09:39:10.591Z,1.50
2023-02-25T09:42:03.531Z,1.50
2023-02-25T09:44:34.279Z,1.60
2023-02-25T09:47:06.459Z,1.90
2023-02-25T09:50:01.439Z,5.00
2023-02-25T09:52:38.657Z,2.10
2023-02-25T09:55:23.589Z,1.70
2023-02-25T09:58:03.087Z,1.60
2023-02-25T10:00:32.046Z,2.20
2023-02-25T10:03:05.032Z,1.80
2023-02-25T10:05:44.492Z,2.20
2023-02-25T10:08:41.917Z,2.50
2023-02-25T10:13:44.905Z,2.30
2023-02-25T10:16:38.943Z,2.40
2023-02-25T10:19:13.430Z,2.90
2023-02-25T10:22:36.919Z,3.40
2023-02-25T10:25:14.785Z,3.20
2023-02-25T10:27:47.875Z,3.10
2023-02-25T10:30:22.960Z,2.80
2023-02-25T10:32:51.080Z,2.90
2023-02-25T10:35:25.755Z,3.50
2023-02-25T10:37:54.828Z,3.30
2023-02-25T10:40:24.581Z,3.20
2023-02-25T10:42:54.736Z,3.20
2023-02-25T10:45:28.271Z,3.40
2023-02-25T10:48:19.013Z,5.00
2023-02-25T10:51:06.536Z,7.40
2023-02-25T10:53:34.747Z,10.30
2023-02-25T10:56:07.066Z,6.60
2023-02-25T10:58:57.863Z,7.20
2023-02-25T11:01:29.430Z,6.60
2023-02-25T11:04:02.845Z,6.30
2023-02-25T11:06:36.005Z,8.10
2023-02-25T11:09:06.942Z,8.40
2023-02-25T11:11:38.684Z,4.30
2023-02-25T11:14:14.739Z,4.30
2023-02-25T11:16:44.126Z,11.40
2023-02-25T11:19:25.469Z,8.40
2023-02-25T11:21:53.749Z,8.50
2023-02-25T11:24:33.672Z,4.90
2023-02-25T11:27:02.459Z,5.30
2023-02-25T11:29:36.469Z,3.80
2023-02-25T11:32:12.228Z,3.40
2023-02-25T11:35:10.401Z,2.80
2023-02-25T11:37:43.182Z,4.70
2023-02-25T11:40:24.357Z,3.90
2023-02-25T11:43:05.009Z,3.60
2023-02-25T11:45:38.613Z,3.30
2023-02-25T11:48:19.865Z,6.90
2023-02-25T11:51:04.107Z,4.70
2023-02-25T11:53:44.984Z,3.90
2023-02-25T11:56:17.233Z,2.90
2023-02-25T11:59:01.991Z,4.20
2023-02-25T12:02:01.512Z,4.10
2023-02-25T12:04:57.665Z,5.10
2023-02-25T12:08:12.581Z,4.00
2023-02-25T12:11:06.384Z,3.20
2023-02-25T12:14:11.390Z,3.60
2023-02-25T12:16:59.401Z,3.50
2023-02-25T12:22:02.037Z,3.40
2023-02-25T12:24:38.409Z,3.50
2023-02-25T12:27:18.614Z,3.60
2023-02-25T12:30:17.032Z,3.40
2023-02-25T12:33:15.507Z,4.80
2023-02-25T12:36:03.686Z,6.20
2023-02-25T12:38:47.431Z,4.20
2023-02-25T12:44:37.830Z,16.10
2023-02-25T12:47:14.917Z,9.90
2023-02-25T12:50:09.269Z,8.10
2023-02-25T12:52:41.065Z,5.30
2023-02-25T12:55:26.121Z,5.30
2023-02-25T12:58:22.500Z,4.10
2023-02-25T13:01:06.072Z,28.30
2023-02-25T13:03:54.415Z,21.70
2023-02-25T13:06:23.227Z,6.90
2023-02-25T13:09:01.130Z,4.50
2023-02-25T13:12:10.543Z,3.60
2023-02-25T13:14:40.720Z,9.90
2023-02-25T13:17:19.938Z,13.20
2023-02-25T13:20:07.032Z,30.50
2023-02-25T13:22:44.680Z,10.30
2023-02-25T13:25:40.704Z,6.60
2023-02-25T13:28:11.675Z,8.50
2023-02-25T13:30:49.625Z,6.00
2023-02-25T13:33:18.310Z,18.60
2023-02-25T13:35:56.045Z,8.50
2023-02-25T13:38:33.438Z,7.20
2023-02-25T13:41:14.479Z,4.90
2023-02-25T13:44:07.943Z,6.40
2023-02-25T13:46:43.432Z,4.70
2023-02-25T13:49:43.934Z,4.20
2023-02-25T13:52:30.856Z,3.80
2023-02-25T13:57:54.239Z,4.00
2023-02-25T14:00:37.253Z,4.90
2023-02-25T14:03:24.238Z,4.20
2023-02-25T14:08:26.816Z,4.10
2023-02-25T14:11:17.031Z,4.70
2023-02-25T14:13:48.876Z,11.30
2023-02-25T14:16:20.046Z,9.10
2023-02-25T14:19:17.611Z,5.90
2023-02-25T14:22:12.143Z,3.70
2023-02-25T14:24:42.467Z,3.10
2023-02-25T14:27:29.375Z,4.20
2023-02-25T14:30:29.764Z,3.00
2023-02-25T14:33:04.689Z,2.80
2023-02-25T14:35:52.202Z,3.20
2023-02-25T14:38:46.810Z,3.10
2023-02-25T14:41:26.845Z,2.80
2023-02-25T14:43:57.396Z,2.90
2023-02-25T14:46:31.356Z,3.00
2023-02-25T14:49:21.098Z,2.90
2023-02-25T14:52:01.575Z,3.30
2023-02-25T14:54:38.654Z,4.10
2023-02-25T14:57:21.798Z,3.10
2023-02-25T15:00:25.627Z,3.10
2023-02-25T15:03:02.828Z,3.20
2023-02-25T15:06:04.892Z,2.80
2023-02-25T15:08:46.292Z,3.00
2023-02-25T15:11:39.143Z,3.30
2023-02-25T15:14:21.792Z,3.10
2023-02-25T15:16:52.785Z,2.90
2023-02-25T15:19:27.641Z,2.90
2023-02-25T15:22:11.915Z,3.30
2023-02-25T15:24:40.869Z,3.00
2023-02-25T15:27:48.603Z,2.90
2023-02-25T15:30:23.517Z,3.30
2023-02-25T15:32:59.552Z,3.80
2023-02-25T15:35:36.535Z,3.50
2023-02-25T15:38:40.206Z,2.60
2023-02-25T15:41:26.807Z,2.00
2023-02-25T15:44:00.320Z,1.70
2023-02-25T15:46:34.835Z,1.60
2023-02-25T15:49:22.108Z,1.80
2023-02-25T15:51:51.600Z,4.70
2023-02-25T15:54:28.969Z,5.30
2023-02-25T15:57:01.420Z,2.30
2023-02-25T15:59:44.109Z,2.70
2023-02-25T16:02:30.578Z,5.00
2023-02-25T16:04:59.249Z,9.70
2023-02-25T16:07:39.291Z,3.20
2023-02-25T16:10:15.869Z,3.70
2023-02-25T16:12:46.240Z,11.90
2023-02-25T16:15:26.450Z,4.40
2023-02-25T16:17:56.591Z,5.00
2023-02-25T16:20:28.497Z,3.80
2023-02-25T16:22:57.757Z,3.00
2023-02-25T16:25:42.649Z,1.80
2023-02-25T16:28:26.805Z,1.50
2023-02-25T16:31:14.847Z,1.90
2023-02-25T16:33:53.279Z,2.40
2023-02-25T16:36:30.318Z,6.40
2023-02-25T16:39:12.684Z,8.20
2023-02-25T16:41:43.133Z,9.30
2023-02-25T16:44:18.430Z,4.10
2023-02-25T16:46:49.884Z,4.80
2023-02-25T16:49:21.282Z,3.60
2023-02-25T16:51:49.452Z,2.90
2023-02-25T16:54:21.016Z,1.90
2023-02-25T16:56:52.681Z,2.40
2023-02-25T16:59:21.814Z,2.60
2023-02-25T17:01:59.244Z,3.10
2023-02-25T17:07:20.162Z,2.70
2023-02-25T17:09:55.424Z,2.00
2023-02-25T17:12:41.397Z,9.30
2023-02-25T17:15:29.223Z,5.70
2023-02-25T17:18:26.876Z,3.70
2023-02-25T17:21:03.911Z,2.50
2023-02-25T17:23:38.797Z,2.60
2023-02-25T17:26:06.876Z,3.10
2023-02-25T17:28:36.965Z,2.50
2023-02-25T17:31:14.203Z,2.80
2023-02-25T17:34:00.905Z,2.70
2023-02-25T17:39:06.483Z,3.20
2023-02-25T17:41:35.768Z,3.00
2023-02-25T17:44:04.350Z,3.20
2023-02-25T17:46:39.475Z,2.90
2023-02-25T17:49:21.749Z,3.40
2023-02-25T17:52:17.077Z,3.10
2023-02-25T17:54:47.170Z,3.30
2023-02-25T17:57:17.673Z,3.80
2023-02-25T18:00:04.357Z,3.60
2023-02-25T18:02:40.426Z,3.60
2023-02-25T18:05:12.648Z,3.10
2023-02-25T18:07:43.423Z,4.30
2023-02-25T18:10:44.939Z,3.20
2023-02-25T18:13:29.282Z,3.40
2023-02-25T18:16:22.411Z,3.60
2023-02-25T18:18:51.940Z,3.10
2023-02-25T18:21:20.415Z,2.80
2023-02-25T18:23:48.782Z,3.40
2023-02-25T18:26:22.244Z,3.10
2023-02-25T18:28:51.617Z,2.70
2023-02-25T18:31:22.653Z,2.80
2023-02-25T18:33:50.966Z,2.80
2023-02-25T18:36:26.778Z,2.70
2023-02-25T18:38:57.784Z,3.00
2023-02-25T18:41:26.681Z,3.00
2023-02-25T18:43:54.794Z,2.70
2023-02-25T18:46:23.781Z,3.10
2023-02-25T18:48:52.325Z,3.30
2023-02-25T18:51:20.754Z,3.40
2023-02-25T18:53:50.744Z,3.40
2023-02-25T18:56:18.909Z,3.60
2023-02-25T18:58:47.251Z,3.50
2023-02-25T19:01:24.061Z,3.10
2023-02-25T19:03:53.952Z,3.40
2023-02-25T19:06:22.243Z,3.50
2023-02-25T19:08:50.540Z,3.90
2023-02-25T19:11:24.354Z,3.60
2023-02-25T19:13:53.205Z,4.00
2023-02-25T19:16:23.498Z,3.70
2023-02-25T19:18:51.891Z,4.30
2023-02-25T19:21:20.918Z,3.90
2023-02-25T19:23:53.945Z,4.00
2023-02-25T19:26:22.457Z,3.90
2023-02-25T19:28:51.267Z,4.70
2023-02-25T19:31:19.459Z,4.20
2023-02-25T19:33:47.674Z,3.80
2023-02-25T19:36:15.798Z,4.20
2023-02-25T19:38:43.817Z,4.00
2023-02-25T19:41:14.479Z,4.30
2023-02-25T19:43:42.710Z,4.00
2023-02-25T19:46:10.822Z,4.80
2023-02-25T19:48:38.931Z,5.00
2023-02-25T19:51:08.191Z,5.10
2023-02-25T19:53:36.615Z,4.90
2023-02-25T19:56:08.101Z,5.60
2023-02-25T19:58:36.641Z,4.80
2023-02-25T20:01:05.946Z,5.20
2023-02-25T20:03:35.767Z,5.70
2023-02-25T20:06:12.943Z,4.80
2023-02-25T20:08:43.083Z,5.40
2023-02-25T20:11:11.319Z,4.90
2023-02-25T20:13:39.436Z,4.80
2023-02-25T20:16:09.541Z,5.10
2023-02-25T20:18:37.739Z,4.90
2023-02-25T20:21:06.150Z,5.10
2023-02-25T20:23:35.090Z,5.00
2023-02-25T20:26:08.416Z,4.80
2023-02-25T20:28:36.858Z,6.10
2023-02-25T20:31:11.516Z,5.80
2023-02-25T20:33:39.971Z,5.40
2023-02-25T20:36:23.342Z,5.30
2023-02-25T20:39:12.982Z,5.10
2023-02-25T20:41:44.781Z,5.40
2023-02-25T20:44:13.286Z,5.40
2023-02-25T20:46:44.404Z,5.40
2023-02-25T20:49:14.708Z,5.10
2023-02-25T20:51:44.944Z,5.20
2023-02-25T20:54:14.145Z,4.90
2023-02-25T20:56:50.788Z,5.00
2023-02-25T20:59:19.416Z,5.30
2023-02-25T21:01:47.480Z,4.80
2023-02-25T21:04:15.741Z,5.20
2023-02-25T21:06:44.334Z,5.00
2023-02-25T21:09:16.939Z,5.40
2023-02-25T21:11:45.299Z,4.80
2023-02-25T21:14:13.371Z,5.30
2023-02-25T21:16:41.749Z,5.00
2023-02-25T21:19:10.112Z,5.70
2023-02-25T21:21:38.241Z,5.40
2023-02-25T21:24:07.742Z,5.10
2023-02-25T21:26:39.491Z,4.90
2023-02-25T21:29:08.157Z,5.00
2023-02-25T21:31:37.435Z,4.80
2023-02-25T21:34:06.710Z,4.80
2023-02-25T21:36:35.942Z,4.30
2023-02-25T21:39:04.228Z,4.30
2023-02-25T21:41:32.375Z,4.70
2023-02-25T21:44:04.054Z,4.90
2023-02-25T21:46:32.444Z,4.50
2023-02-25T21:49:00.648Z,5.40
2023-02-25T21:51:29.119Z,5.00
2023-02-25T21:53:59.011Z,4.70
2023-02-25T21:56:27.735Z,4.60
2023-02-25T21:58:57.034Z,4.80
2023-02-25T22:01:28.435Z,5.30
2023-02-25T22:03:56.709Z,5.10
2023-02-25T22:06:26.220Z,5.10
2023-02-25T22:08:55.501Z,5.50
2023-02-25T22:11:26.311Z,5.50
2023-02-25T22:14:01.276Z,5.20
2023-02-25T22:16:29.803Z,5.20
2023-02-25T22:18:58.883Z,5.30
2023-02-25T22:21:29.711Z,5.70
2023-02-25T22:23:59.125Z,5.80
2023-02-25T22:26:32.017Z,5.10
2023-02-25T22:29:05.155Z,5.00
2023-02-25T22:31:34.417Z,5.10
2023-02-25T22:34:03.062Z,5.80
2023-02-25T22:36:31.159Z,5.20
2023-02-25T22:39:00.002Z,5.40
2023-02-25T22:41:29.284Z,5.10
2023-02-25T22:43:58.125Z,5.00
2023-02-25T22:46:28.399Z,5.50
2023-02-25T22:48:56.704Z,5.20
2023-02-25T22:51:26.221Z,6.10
2023-02-25T22:53:54.415Z,6.10
2023-02-25T22:56:22.888Z,6.40
2023-02-25T22:58:51.424Z,5.80
2023-02-25T23:01:21.126Z,6.20
2023-02-25T23:03:51.611Z,6.50
2023-02-25T23:06:34.227Z,7.10
2023-02-25T23:09:10.847Z,6.00
2023-02-25T23:11:42.837Z,5.60
2023-02-25T23:14:11.898Z,5.90
2023-02-25T23:16:41.726Z,6.10
2023-02-25T23:19:16.012Z,6.00
2023-02-25T23:21:46.316Z,6.10
2023-02-25T23:24:16.529Z,5.60
2023-02-25T23:26:45.314Z,5.80
2023-02-25T23:29:13.813Z,5.60
2023-02-25T23:31:44.634Z,5.80
2023-02-25T23:34:15.093Z,5.10
2023-02-25T23:36:43.814Z,5.20
2023-02-25T23:39:12.769Z,5.40
2023-02-25T23:41:40.924Z,5.40
2023-02-25T23:44:11.498Z,5.80
2023-02-25T23:46:39.751Z,5.30
2023-02-25T23:49:07.920Z,4.30
2023-02-25T23:51:36.373Z,4.90
2023-02-25T23:54:05.954Z,4.90
2023-02-25T23:56:34.311Z,5.10
2023-02-25T23:59:03.645Z,4.50
